sensor_id;sensor_type;location;lat;lon;timestamp;pressure;altitude;pressure_sealevel;temperature;humidity
55191;BME280;41070;50.360;18.742;2022-07-10T02:50:34;98691.58;;;15.85;68.23
55191;BME280;41070;50.360;18.742;2022-07-10T07:19:18;98721.59;;;16.23;62.24
55191;BME280;41070;50.360;18.742;2022-07-10T07:43:10;98728.50;;;17.14;58.20
55191;BME280;41070;50.360;18.742;2022-07-10T07:48:22;98725.95;;;17.61;56.61
55191;BME280;41070;50.360;18.742;2022-07-10T07:51:09;98723.55;;;17.75;56.23
55191;BME280;41070;50.360;18.742;2022-07-10T07:53:40;98728.51;;;17.83;56.24
55191;BME280;41070;50.360;18.742;2022-07-10T07:56:28;98724.89;;;17.86;56.11
55191;BME280;41070;50.360;18.742;2022-07-10T07:58:56;98727.66;;;18.01;55.02
55191;BME280;41070;50.360;18.742;2022-07-10T08:04:46;98721.50;;;18.29;54.86
55191;BME280;41070;50.360;18.742;2022-07-10T08:07:34;98728.20;;;18.43;53.92
55191;BME280;41070;50.360;18.742;2022-07-10T08:10:23;98728.81;;;18.13;52.79
55191;BME280;41070;50.360;18.742;2022-07-10T08:13:12;98728.75;;;17.89;53.20
55191;BME280;41070;50.360;18.742;2022-07-10T08:16:00;98731.90;;;17.64;53.75
55191;BME280;41070;50.360;18.742;2022-07-10T08:18:28;98735.91;;;17.56;54.40
55191;BME280;41070;50.360;18.742;2022-07-10T08:21:00;98740.86;;;17.52;53.73
55191;BME280;41070;50.360;18.742;2022-07-10T08:23:48;98743.45;;;17.36;53.37
55191;BME280;41070;50.360;18.742;2022-07-10T08:26:16;98743.52;;;17.30;53.78
55191;BME280;41070;50.360;18.742;2022-07-10T08:28:52;98741.34;;;17.27;54.28
55191;BME280;41070;50.360;18.742;2022-07-10T08:32:05;98748.46;;;17.30;54.23
55191;BME280;41070;50.360;18.742;2022-07-10T08:34:53;98748.33;;;17.35;54.77
55191;BME280;41070;50.360;18.742;2022-07-10T08:37:21;98752.27;;;17.39;54.59
55191;BME280;41070;50.360;18.742;2022-07-10T08:40:09;98753.66;;;17.41;54.55
55191;BME280;41070;50.360;18.742;2022-07-10T08:42:56;98754.45;;;17.46;54.24
55191;BME280;41070;50.360;18.742;2022-07-10T08:45:24;98753.60;;;17.49;54.01
55191;BME280;41070;50.360;18.742;2022-07-10T08:47:52;98753.84;;;17.48;53.63
55191;BME280;41070;50.360;18.742;2022-07-10T08:53:29;98748.04;;;17.53;53.36
55191;BME280;41070;50.360;18.742;2022-07-10T08:55:58;98746.98;;;17.66;52.65
55191;BME280;41070;50.360;18.742;2022-07-10T09:02:17;98750.41;;;17.96;51.48
55191;BME280;41070;50.360;18.742;2022-07-10T09:05:13;98737.26;;;18.01;50.80
55191;BME280;41070;50.360;18.742;2022-07-10T09:08:01;98733.15;;;18.04;50.86
55191;BME280;41070;50.360;18.742;2022-07-10T09:10:33;98736.84;;;18.21;50.92
55191;BME280;41070;50.360;18.742;2022-07-10T09:13:01;98733.40;;;18.40;50.61
55191;BME280;41070;50.360;18.742;2022-07-10T09:15:30;98733.64;;;18.60;50.36
55191;BME280;41070;50.360;18.742;2022-07-10T09:18:01;98732.81;;;18.77;50.11
55191;BME280;41070;50.360;18.742;2022-07-10T09:25:37;98741.16;;;18.26;48.95
55191;BME280;41070;50.360;18.742;2022-07-10T09:28:04;98743.77;;;17.99;49.10
55191;BME280;41070;50.360;18.742;2022-07-10T09:30:39;98743.35;;;17.75;49.55
55191;BME280;41070;50.360;18.742;2022-07-10T09:33:24;98743.86;;;17.50;49.83
55191;BME280;41070;50.360;18.742;2022-07-10T09:36:00;98745.66;;;17.23;49.26
55191;BME280;41070;50.360;18.742;2022-07-10T09:43:46;98747.27;;;16.66;49.37
55191;BME280;41070;50.360;18.742;2022-07-10T09:46:15;98752.94;;;16.52;49.55
55191;BME280;41070;50.360;18.742;2022-07-10T09:48:43;98752.20;;;16.47;50.25
55191;BME280;41070;50.360;18.742;2022-07-10T09:51:11;98753.00;;;16.51;50.51
55191;BME280;41070;50.360;18.742;2022-07-10T09:53:43;98751.12;;;16.60;50.49
55191;BME280;41070;50.360;18.742;2022-07-10T09:56:12;98745.45;;;16.72;50.79
55191;BME280;41070;50.360;18.742;2022-07-10T09:58:40;98743.17;;;16.88;50.86
55191;BME280;41070;50.360;18.742;2022-07-10T10:01:08;98740.14;;;17.05;51.07
55191;BME280;41070;50.360;18.742;2022-07-10T10:03:39;98739.02;;;17.29;50.64
55191;BME280;41070;50.360;18.742;2022-07-10T10:06:16;98736.21;;;17.53;50.48
55191;BME280;41070;50.360;18.742;2022-07-10T10:11:19;98735.02;;;18.01;49.34
55191;BME280;41070;50.360;18.742;2022-07-10T10:13:49;98729.45;;;17.99;49.04
55191;BME280;41070;50.360;18.742;2022-07-10T10:16:19;98732.02;;;17.92;48.87
55191;BME280;41070;50.360;18.742;2022-07-10T10:18:47;98729.13;;;17.88;49.20
55191;BME280;41070;50.360;18.742;2022-07-10T10:21:33;98724.80;;;17.92;49.43
55191;BME280;41070;50.360;18.742;2022-07-10T10:24:01;98729.53;;;18.00;49.41
55191;BME280;41070;50.360;18.742;2022-07-10T10:26:29;98724.11;;;18.03;48.87
55191;BME280;41070;50.360;18.742;2022-07-10T10:28:58;98719.23;;;18.07;49.02
55191;BME280;41070;50.360;18.742;2022-07-10T10:31:27;98716.80;;;18.24;49.19
55191;BME280;41070;50.360;18.742;2022-07-10T10:33:57;98715.08;;;18.31;48.82
55191;BME280;41070;50.360;18.742;2022-07-10T10:39:14;98713.96;;;18.09;47.64
55191;BME280;41070;50.360;18.742;2022-07-10T10:41:52;98709.26;;;17.89;48.25
55191;BME280;41070;50.360;18.742;2022-07-10T10:44:27;98715.27;;;17.69;48.22
55191;BME280;41070;50.360;18.742;2022-07-10T10:47:04;98724.16;;;17.44;47.22
55191;BME280;41070;50.360;18.742;2022-07-10T10:49:55;98727.41;;;17.16;47.16
55191;BME280;41070;50.360;18.742;2022-07-10T10:52:28;98736.20;;;16.87;47.82
55191;BME280;41070;50.360;18.742;2022-07-10T10:57:43;98736.85;;;16.64;49.01
55191;BME280;41070;50.360;18.742;2022-07-10T11:00:29;98741.06;;;16.55;48.65
55191;BME280;41070;50.360;18.742;2022-07-10T11:03:17;98740.05;;;16.51;48.51
55191;BME280;41070;50.360;18.742;2022-07-10T11:05:46;98742.07;;;16.57;48.23
55191;BME280;41070;50.360;18.742;2022-07-10T11:08:43;98738.56;;;16.67;48.21
55191;BME280;41070;50.360;18.742;2022-07-10T11:13:58;98736.79;;;16.98;48.13
55191;BME280;41070;50.360;18.742;2022-07-10T11:16:26;98743.92;;;17.09;47.38
55191;BME280;41070;50.360;18.742;2022-07-10T11:18:54;98748.05;;;17.17;46.81
55191;BME280;41070;50.360;18.742;2022-07-10T11:21:25;98741.43;;;17.26;46.68
55191;BME280;41070;50.360;18.742;2022-07-10T11:24:30;98737.20;;;17.36;45.88
55191;BME280;41070;50.360;18.742;2022-07-10T11:27:34;98737.29;;;17.49;46.14
55191;BME280;41070;50.360;18.742;2022-07-10T11:30:04;98733.67;;;17.63;46.10
55191;BME280;41070;50.360;18.742;2022-07-10T11:32:33;98737.23;;;17.79;45.60
55191;BME280;41070;50.360;18.742;2022-07-10T11:35:01;98731.23;;;17.94;45.60
55191;BME280;41070;50.360;18.742;2022-07-10T11:37:32;98737.48;;;18.11;45.28
55191;BME280;41070;50.360;18.742;2022-07-10T11:40:10;98735.52;;;18.23;44.76
55191;BME280;41070;50.360;18.742;2022-07-10T11:42:53;98731.39;;;18.32;44.75
55191;BME280;41070;50.360;18.742;2022-07-10T11:45:28;98731.69;;;18.41;44.99
55191;BME280;41070;50.360;18.742;2022-07-10T11:47:58;98732.21;;;18.44;45.05
55191;BME280;41070;50.360;18.742;2022-07-10T11:50:26;98733.98;;;18.49;44.46
55191;BME280;41070;50.360;18.742;2022-07-10T11:52:56;98732.05;;;18.54;44.16
55191;BME280;41070;50.360;18.742;2022-07-10T11:55:26;98737.48;;;18.68;43.61
55191;BME280;41070;50.360;18.742;2022-07-10T11:57:55;98738.09;;;18.71;43.15
55191;BME280;41070;50.360;18.742;2022-07-10T12:00:30;98737.38;;;18.81;42.65
55191;BME280;41070;50.360;18.742;2022-07-10T12:03:16;98734.88;;;18.92;43.13
55191;BME280;41070;50.360;18.742;2022-07-10T12:05:44;98730.58;;;18.98;42.78
55191;BME280;41070;50.360;18.742;2022-07-10T12:08:12;98736.77;;;18.96;43.01
55191;BME280;41070;50.360;18.742;2022-07-10T12:10:40;98737.89;;;18.89;43.12
55191;BME280;41070;50.360;18.742;2022-07-10T12:13:10;98740.23;;;18.86;43.76
55191;BME280;41070;50.360;18.742;2022-07-10T12:18:27;98745.13;;;18.81;43.40
55191;BME280;41070;50.360;18.742;2022-07-10T12:20:58;98741.02;;;18.74;43.19
55191;BME280;41070;50.360;18.742;2022-07-10T12:23:28;98741.45;;;18.65;43.24
55191;BME280;41070;50.360;18.742;2022-07-10T12:25:55;98746.05;;;18.54;42.93
55191;BME280;41070;50.360;18.742;2022-07-10T12:28:23;98746.61;;;18.46;43.45
55191;BME280;41070;50.360;18.742;2022-07-10T12:30:51;98750.73;;;18.35;43.89
55191;BME280;41070;50.360;18.742;2022-07-10T12:33:21;98748.58;;;18.30;44.45
55191;BME280;41070;50.360;18.742;2022-07-10T12:41:12;98742.69;;;18.68;44.66
55191;BME280;41070;50.360;18.742;2022-07-10T12:43:41;98733.35;;;18.84;44.33
55191;BME280;41070;50.360;18.742;2022-07-10T12:46:21;98735.14;;;19.01;44.08
55191;BME280;41070;50.360;18.742;2022-07-10T12:49:09;98728.11;;;19.10;43.77
55191;BME280;41070;50.360;18.742;2022-07-10T12:51:46;98731.48;;;19.18;43.87
55191;BME280;41070;50.360;18.742;2022-07-10T12:54:35;98736.65;;;19.21;43.78
55191;BME280;41070;50.360;18.742;2022-07-10T13:04:37;98737.66;;;19.22;43.14
55191;BME280;41070;50.360;18.742;2022-07-10T13:07:12;98737.28;;;19.04;43.02
55191;BME280;41070;50.360;18.742;2022-07-10T13:09:40;98736.29;;;18.85;43.84
55191;BME280;41070;50.360;18.742;2022-07-10T13:12:10;98739.33;;;18.72;44.10
55191;BME280;41070;50.360;18.742;2022-07-10T13:14:37;98741.16;;;18.56;44.37
55191;BME280;41070;50.360;18.742;2022-07-10T13:17:05;98736.96;;;18.34;44.97
55191;BME280;41070;50.360;18.742;2022-07-10T13:19:33;98735.69;;;18.17;45.41
55191;BME280;41070;50.360;18.742;2022-07-10T13:22:00;98734.61;;;18.09;45.86
55191;BME280;41070;50.360;18.742;2022-07-10T13:24:28;98734.78;;;18.08;46.09
55191;BME280;41070;50.360;18.742;2022-07-10T13:26:55;98737.95;;;18.01;46.18
55191;BME280;41070;50.360;18.742;2022-07-10T13:29:23;98733.63;;;17.92;46.05
55191;BME280;41070;50.360;18.742;2022-07-10T13:31:50;98734.32;;;17.86;46.12
55191;BME280;41070;50.360;18.742;2022-07-10T13:34:18;98729.34;;;17.80;46.43
55191;BME280;41070;50.360;18.742;2022-07-10T13:36:46;98740.48;;;17.78;46.98
55191;BME280;41070;50.360;18.742;2022-07-10T13:39:13;98739.55;;;17.65;47.73
55191;BME280;41070;50.360;18.742;2022-07-10T13:41:41;98746.02;;;17.47;48.29
55191;BME280;41070;50.360;18.742;2022-07-10T13:44:09;98750.40;;;17.30;49.37
55191;BME280;41070;50.360;18.742;2022-07-10T13:46:37;98746.04;;;17.16;50.20
55191;BME280;41070;50.360;18.742;2022-07-10T13:49:06;98747.09;;;17.07;51.70
55191;BME280;41070;50.360;18.742;2022-07-10T13:51:34;98740.42;;;16.96;51.82
55191;BME280;41070;50.360;18.742;2022-07-10T13:54:02;98737.27;;;17.04;50.99
55191;BME280;41070;50.360;18.742;2022-07-10T13:56:30;98736.19;;;17.32;50.23
55191;BME280;41070;50.360;18.742;2022-07-10T13:58:58;98734.36;;;17.67;49.33
55191;BME280;41070;50.360;18.742;2022-07-10T14:01:26;98736.72;;;17.92;47.83
55191;BME280;41070;50.360;18.742;2022-07-10T14:03:54;98734.53;;;18.08;47.30
55191;BME280;41070;50.360;18.742;2022-07-10T14:06:22;98734.36;;;18.24;47.46
55191;BME280;41070;50.360;18.742;2022-07-10T14:08:49;98727.50;;;18.43;47.32
55191;BME280;41070;50.360;18.742;2022-07-10T14:11:17;98728.61;;;18.59;47.35
55191;BME280;41070;50.360;18.742;2022-07-10T14:13:45;98733.55;;;18.67;46.61
55191;BME280;41070;50.360;18.742;2022-07-10T14:16:13;98728.44;;;18.67;46.43
55191;BME280;41070;50.360;18.742;2022-07-10T14:18:41;98730.77;;;18.63;46.38
55191;BME280;41070;50.360;18.742;2022-07-10T14:21:11;98732.11;;;18.56;46.92
55191;BME280;41070;50.360;18.742;2022-07-10T14:23:41;98734.88;;;18.63;46.30
55191;BME280;41070;50.360;18.742;2022-07-10T14:26:11;98737.09;;;18.71;45.62
55191;BME280;41070;50.360;18.742;2022-07-10T14:28:39;98734.19;;;18.84;45.87
55191;BME280;41070;50.360;18.742;2022-07-10T14:31:07;98736.41;;;18.92;45.61
55191;BME280;41070;50.360;18.742;2022-07-10T14:33:35;98737.45;;;18.86;45.75
55191;BME280;41070;50.360;18.742;2022-07-10T14:36:03;98738.78;;;18.82;46.52
55191;BME280;41070;50.360;18.742;2022-07-10T14:38:31;98744.82;;;18.80;46.80
55191;BME280;41070;50.360;18.742;2022-07-10T14:40:59;98749.81;;;18.64;47.17
55191;BME280;41070;50.360;18.742;2022-07-10T14:43:27;98752.92;;;18.58;47.07
55191;BME280;41070;50.360;18.742;2022-07-10T14:45:55;98750.55;;;18.49;46.71
55191;BME280;41070;50.360;18.742;2022-07-10T14:48:23;98747.57;;;18.34;46.98
55191;BME280;41070;50.360;18.742;2022-07-10T14:50:51;98748.51;;;18.32;46.95
55191;BME280;41070;50.360;18.742;2022-07-10T14:53:19;98746.80;;;18.32;47.07
55191;BME280;41070;50.360;18.742;2022-07-10T14:55:47;98743.55;;;18.29;46.96
55191;BME280;41070;50.360;18.742;2022-07-10T14:58:15;98749.37;;;18.24;47.26
55191;BME280;41070;50.360;18.742;2022-07-10T15:00:43;98748.05;;;18.23;47.01
55191;BME280;41070;50.360;18.742;2022-07-10T15:03:11;98746.11;;;18.26;46.60
55191;BME280;41070;50.360;18.742;2022-07-10T15:05:38;98745.56;;;18.30;46.56
55191;BME280;41070;50.360;18.742;2022-07-10T15:08:06;98747.42;;;18.29;46.61
55191;BME280;41070;50.360;18.742;2022-07-10T15:10:34;98746.91;;;18.12;46.68
55191;BME280;41070;50.360;18.742;2022-07-10T15:13:01;98752.02;;;17.99;47.11
55191;BME280;41070;50.360;18.742;2022-07-10T15:15:32;98760.43;;;17.79;47.63
55191;BME280;41070;50.360;18.742;2022-07-10T15:18:00;98766.58;;;17.54;47.72
55191;BME280;41070;50.360;18.742;2022-07-10T15:20:28;98766.06;;;17.24;47.86
55191;BME280;41070;50.360;18.742;2022-07-10T15:22:55;98767.95;;;17.08;48.48
55191;BME280;41070;50.360;18.742;2022-07-10T15:25:23;98767.92;;;17.00;49.02
55191;BME280;41070;50.360;18.742;2022-07-10T15:27:51;98764.21;;;16.97;49.62
55191;BME280;41070;50.360;18.742;2022-07-10T15:30:19;98763.08;;;17.06;50.01
55191;BME280;41070;50.360;18.742;2022-07-10T15:32:47;98762.80;;;17.18;50.13
55191;BME280;41070;50.360;18.742;2022-07-10T15:35:15;98764.54;;;17.32;50.28
55191;BME280;41070;50.360;18.742;2022-07-10T15:37:43;98760.77;;;17.43;49.98
55191;BME280;41070;50.360;18.742;2022-07-10T15:40:10;98755.08;;;17.55;50.09
55191;BME280;41070;50.360;18.742;2022-07-10T15:42:38;98755.24;;;17.72;49.84
55191;BME280;41070;50.360;18.742;2022-07-10T15:45:06;98751.70;;;18.00;49.65
55191;BME280;41070;50.360;18.742;2022-07-10T15:47:34;98749.59;;;18.30;48.85
55191;BME280;41070;50.360;18.742;2022-07-10T15:50:02;98746.84;;;18.49;48.97
55191;BME280;41070;50.360;18.742;2022-07-10T15:52:30;98749.80;;;18.65;48.46
55191;BME280;41070;50.360;18.742;2022-07-10T15:54:58;98751.02;;;18.82;48.52
55191;BME280;41070;50.360;18.742;2022-07-10T15:57:26;98753.27;;;18.98;48.13
55191;BME280;41070;50.360;18.742;2022-07-10T15:59:54;98750.02;;;19.14;48.28
55191;BME280;41070;50.360;18.742;2022-07-10T16:02:24;98751.91;;;19.23;47.37
55191;BME280;41070;50.360;18.742;2022-07-10T16:04:55;98758.95;;;19.08;46.96
55191;BME280;41070;50.360;18.742;2022-07-10T16:07:22;98756.52;;;19.02;47.16
55191;BME280;41070;50.360;18.742;2022-07-10T16:09:50;98759.19;;;18.94;46.93
55191;BME280;41070;50.360;18.742;2022-07-10T16:12:18;98765.89;;;18.76;46.88
55191;BME280;41070;50.360;18.742;2022-07-10T16:14:45;98766.61;;;18.60;46.55
55191;BME280;41070;50.360;18.742;2022-07-10T16:17:13;98769.05;;;18.48;46.69
55191;BME280;41070;50.360;18.742;2022-07-10T16:19:41;98773.19;;;18.32;46.76
55191;BME280;41070;50.360;18.742;2022-07-10T16:22:08;98774.67;;;18.15;47.25
55191;BME280;41070;50.360;18.742;2022-07-10T16:24:37;98777.55;;;17.99;47.73
55191;BME280;41070;50.360;18.742;2022-07-10T16:27:25;98774.73;;;17.80;48.47
55191;BME280;41070;50.360;18.742;2022-07-10T16:29:53;98779.59;;;17.68;48.93
55191;BME280;41070;50.360;18.742;2022-07-10T16:36:02;98785.02;;;17.36;49.84
55191;BME280;41070;50.360;18.742;2022-07-10T16:38:29;98783.76;;;17.29;50.29
55191;BME280;41070;50.360;18.742;2022-07-10T16:40:57;98782.20;;;17.26;50.47
55191;BME280;41070;50.360;18.742;2022-07-10T16:43:25;98783.23;;;17.30;50.48
55191;BME280;41070;50.360;18.742;2022-07-10T16:45:57;98780.39;;;17.36;50.46
55191;BME280;41070;50.360;18.742;2022-07-10T16:48:31;98784.23;;;17.32;50.15
55191;BME280;41070;50.360;18.742;2022-07-10T16:51:01;98787.55;;;17.32;50.31
55191;BME280;41070;50.360;18.742;2022-07-10T16:53:29;98782.61;;;17.33;50.38
55191;BME280;41070;50.360;18.742;2022-07-10T16:55:57;98786.34;;;17.36;50.04
55191;BME280;41070;50.360;18.742;2022-07-10T16:58:25;98785.78;;;17.30;50.21
55191;BME280;41070;50.360;18.742;2022-07-10T17:00:53;98783.20;;;17.18;50.07
55191;BME280;41070;50.360;18.742;2022-07-10T17:03:21;98780.16;;;17.12;50.37
55191;BME280;41070;50.360;18.742;2022-07-10T17:05:48;98778.77;;;17.13;50.44
55191;BME280;41070;50.360;18.742;2022-07-10T17:08:16;98775.61;;;17.15;50.30
55191;BME280;41070;50.360;18.742;2022-07-10T17:10:45;98778.24;;;17.18;50.47
55191;BME280;41070;50.360;18.742;2022-07-10T17:13:14;98775.87;;;17.20;50.17
55191;BME280;41070;50.360;18.742;2022-07-10T17:15:42;98775.39;;;17.16;49.77
55191;BME280;41070;50.360;18.742;2022-07-10T17:18:09;98774.97;;;17.09;49.75
55191;BME280;41070;50.360;18.742;2022-07-10T17:20:37;98777.65;;;17.01;49.72
55191;BME280;41070;50.360;18.742;2022-07-10T17:23:05;98778.64;;;16.98;50.13
55191;BME280;41070;50.360;18.742;2022-07-10T17:25:32;98783.52;;;17.00;50.31
55191;BME280;41070;50.360;18.742;2022-07-10T17:28:00;98782.95;;;16.96;50.00
55191;BME280;41070;50.360;18.742;2022-07-10T17:30:28;98786.00;;;16.86;50.24
55191;BME280;41070;50.360;18.742;2022-07-10T17:32:56;98785.52;;;16.83;50.55
55191;BME280;41070;50.360;18.742;2022-07-10T17:35:27;98786.77;;;16.76;50.42
55191;BME280;41070;50.360;18.742;2022-07-10T17:37:55;98785.13;;;16.69;50.46
55191;BME280;41070;50.360;18.742;2022-07-10T17:40:23;98787.42;;;16.67;50.84
55191;BME280;41070;50.360;18.742;2022-07-10T17:42:54;98790.21;;;16.69;50.95
55191;BME280;41070;50.360;18.742;2022-07-10T17:45:25;98789.84;;;16.72;51.04
55191;BME280;41070;50.360;18.742;2022-07-10T17:47:53;98791.47;;;16.75;51.35
55191;BME280;41070;50.360;18.742;2022-07-10T17:50:21;98794.49;;;16.74;51.28
55191;BME280;41070;50.360;18.742;2022-07-10T17:52:54;98796.17;;;16.73;51.56
55191;BME280;41070;50.360;18.742;2022-07-10T17:55:32;98799.26;;;16.72;51.79
55191;BME280;41070;50.360;18.742;2022-07-10T17:58:00;98806.02;;;16.68;51.84
55191;BME280;41070;50.360;18.742;2022-07-10T18:00:30;98803.63;;;16.65;52.40
55191;BME280;41070;50.360;18.742;2022-07-10T18:02:57;98807.00;;;16.61;52.78
55191;BME280;41070;50.360;18.742;2022-07-10T18:05:25;98811.60;;;16.57;53.18
55191;BME280;41070;50.360;18.742;2022-07-10T18:07:55;98809.19;;;16.52;53.34
55191;BME280;41070;50.360;18.742;2022-07-10T18:10:24;98811.55;;;16.48;53.63
55191;BME280;41070;50.360;18.742;2022-07-10T18:12:53;98809.89;;;16.43;53.73
55191;BME280;41070;50.360;18.742;2022-07-10T18:15:21;98816.95;;;16.36;53.79
55191;BME280;41070;50.360;18.742;2022-07-10T18:17:49;98816.67;;;16.30;54.16
55191;BME280;41070;50.360;18.742;2022-07-10T18:20:18;98819.41;;;16.24;54.49
55191;BME280;41070;50.360;18.742;2022-07-10T18:22:46;98822.92;;;16.21;54.75
55191;BME280;41070;50.360;18.742;2022-07-10T18:25:14;98820.42;;;16.15;55.16
55191;BME280;41070;50.360;18.742;2022-07-10T18:27:42;98817.08;;;16.12;55.46
55191;BME280;41070;50.360;18.742;2022-07-10T18:30:10;98817.52;;;16.09;55.66
55191;BME280;41070;50.360;18.742;2022-07-10T18:32:38;98821.31;;;16.03;56.06
55191;BME280;41070;50.360;18.742;2022-07-10T18:35:23;98827.34;;;16.04;56.67
55191;BME280;41070;50.360;18.742;2022-07-10T18:37:51;98824.73;;;16.06;56.62
55191;BME280;41070;50.360;18.742;2022-07-10T18:40:20;98830.70;;;16.07;56.83
55191;BME280;41070;50.360;18.742;2022-07-10T18:42:50;98830.60;;;16.07;56.91
55191;BME280;41070;50.360;18.742;2022-07-10T18:45:20;98835.58;;;16.03;57.18
55191;BME280;41070;50.360;18.742;2022-07-10T18:47:49;98839.88;;;16.01;57.42
55191;BME280;41070;50.360;18.742;2022-07-10T18:50:17;98839.17;;;16.00;57.47
55191;BME280;41070;50.360;18.742;2022-07-10T18:52:44;98841.24;;;15.97;57.49
55191;BME280;41070;50.360;18.742;2022-07-10T18:55:12;98840.29;;;15.94;57.81
55191;BME280;41070;50.360;18.742;2022-07-10T18:57:40;98841.77;;;15.95;57.75
55191;BME280;41070;50.360;18.742;2022-07-10T19:00:08;98841.21;;;15.94;57.78
55191;BME280;41070;50.360;18.742;2022-07-10T19:02:36;98842.89;;;15.93;58.48
55191;BME280;41070;50.360;18.742;2022-07-10T19:05:06;98839.58;;;15.93;58.41
55191;BME280;41070;50.360;18.742;2022-07-10T19:07:34;98845.48;;;15.91;58.52
55191;BME280;41070;50.360;18.742;2022-07-10T19:10:22;98848.52;;;15.92;58.64
55191;BME280;41070;50.360;18.742;2022-07-10T19:12:50;98850.50;;;15.91;58.97
55191;BME280;41070;50.360;18.742;2022-07-10T19:15:18;98851.58;;;15.91;58.94
55191;BME280;41070;50.360;18.742;2022-07-10T19:18:06;98852.66;;;15.91;59.26
55191;BME280;41070;50.360;18.742;2022-07-10T19:20:43;98853.96;;;15.89;59.27
55191;BME280;41070;50.360;18.742;2022-07-10T19:23:12;98856.40;;;15.86;59.12
55191;BME280;41070;50.360;18.742;2022-07-10T19:25:41;98859.70;;;15.84;59.45
55191;BME280;41070;50.360;18.742;2022-07-10T19:28:09;98863.13;;;15.80;59.37
55191;BME280;41070;50.360;18.742;2022-07-10T19:30:39;98865.63;;;15.77;59.52
55191;BME280;41070;50.360;18.742;2022-07-10T19:33:07;98863.16;;;15.72;59.90
55191;BME280;41070;50.360;18.742;2022-07-10T19:35:35;98868.59;;;15.68;59.87
55191;BME280;41070;50.360;18.742;2022-07-10T19:38:22;98871.96;;;15.59;60.03
55191;BME280;41070;50.360;18.742;2022-07-10T19:41:12;98870.53;;;15.55;60.23
55191;BME280;41070;50.360;18.742;2022-07-10T19:43:41;98876.96;;;15.51;60.51
55191;BME280;41070;50.360;18.742;2022-07-10T19:46:11;98876.05;;;15.45;60.65
55191;BME280;41070;50.360;18.742;2022-07-10T19:48:40;98882.52;;;15.37;60.34
55191;BME280;41070;50.360;18.742;2022-07-10T19:51:15;98881.33;;;15.29;60.31
55191;BME280;41070;50.360;18.742;2022-07-10T19:53:44;98885.41;;;15.23;60.52
55191;BME280;41070;50.360;18.742;2022-07-10T19:56:15;98891.17;;;15.17;60.23
55191;BME280;41070;50.360;18.742;2022-07-10T19:58:42;98889.18;;;15.11;60.22
55191;BME280;41070;50.360;18.742;2022-07-10T20:01:10;98890.27;;;15.06;60.10
55191;BME280;41070;50.360;18.742;2022-07-10T20:03:37;98896.89;;;15.00;60.15
55191;BME280;41070;50.360;18.742;2022-07-10T20:06:06;98897.52;;;14.96;60.20
55191;BME280;41070;50.360;18.742;2022-07-10T20:08:35;98898.14;;;14.91;60.54
55191;BME280;41070;50.360;18.742;2022-07-10T20:11:03;98897.30;;;14.86;60.63
55191;BME280;41070;50.360;18.742;2022-07-10T20:13:30;98897.56;;;14.82;61.03
55191;BME280;41070;50.360;18.742;2022-07-10T20:15:58;98894.94;;;14.76;61.29
55191;BME280;41070;50.360;18.742;2022-07-10T20:18:26;98891.27;;;14.68;61.61
55191;BME280;41070;50.360;18.742;2022-07-10T20:20:55;98897.12;;;14.64;62.30
55191;BME280;41070;50.360;18.742;2022-07-10T20:23:24;98892.84;;;14.56;62.98
55191;BME280;41070;50.360;18.742;2022-07-10T20:25:51;98889.09;;;14.49;62.95
55191;BME280;41070;50.360;18.742;2022-07-10T20:28:20;98883.28;;;14.51;63.11
55191;BME280;41070;50.360;18.742;2022-07-10T20:30:48;98884.55;;;14.53;63.19
55191;BME280;41070;50.360;18.742;2022-07-10T20:33:17;98887.41;;;14.57;63.36
55191;BME280;41070;50.360;18.742;2022-07-10T20:35:48;98892.05;;;14.64;63.47
55191;BME280;41070;50.360;18.742;2022-07-10T20:38:37;98891.32;;;14.71;63.44
55191;BME280;41070;50.360;18.742;2022-07-10T20:41:10;98890.61;;;14.75;63.55
55191;BME280;41070;50.360;18.742;2022-07-10T20:43:38;98894.13;;;14.79;63.64
55191;BME280;41070;50.360;18.742;2022-07-10T20:46:09;98896.49;;;14.83;63.73
55191;BME280;41070;50.360;18.742;2022-07-10T20:48:37;98900.53;;;14.80;63.69
55191;BME280;41070;50.360;18.742;2022-07-10T20:51:04;98906.54;;;14.75;63.81
55191;BME280;41070;50.360;18.742;2022-07-10T20:53:33;98904.48;;;14.67;63.76
55191;BME280;41070;50.360;18.742;2022-07-10T20:56:14;98902.09;;;14.57;64.27
55191;BME280;41070;50.360;18.742;2022-07-10T20:58:42;98898.58;;;14.58;64.45
55191;BME280;41070;50.360;18.742;2022-07-10T21:01:10;98900.38;;;14.60;64.55
55191;BME280;41070;50.360;18.742;2022-07-10T21:03:40;98904.71;;;14.63;64.68
55191;BME280;41070;50.360;18.742;2022-07-10T21:06:07;98902.55;;;14.66;64.72
55191;BME280;41070;50.360;18.742;2022-07-10T21:08:35;98902.31;;;14.71;64.76
55191;BME280;41070;50.360;18.742;2022-07-10T21:11:03;98902.05;;;14.74;64.86
55191;BME280;41070;50.360;18.742;2022-07-10T21:13:30;98902.48;;;14.76;64.81
55191;BME280;41070;50.360;18.742;2022-07-10T21:15:58;98902.36;;;14.79;64.96
55191;BME280;41070;50.360;18.742;2022-07-10T21:18:26;98900.25;;;14.82;64.98
55191;BME280;41070;50.360;18.742;2022-07-10T21:20:54;98900.65;;;14.84;64.98
55191;BME280;41070;50.360;18.742;2022-07-10T21:23:21;98902.43;;;14.84;65.12
55191;BME280;41070;50.360;18.742;2022-07-10T21:25:49;98901.21;;;14.85;65.22
55191;BME280;41070;50.360;18.742;2022-07-10T21:28:17;98899.92;;;14.86;65.27
55191;BME280;41070;50.360;18.742;2022-07-10T21:30:47;98895.62;;;14.87;65.39
55191;BME280;41070;50.360;18.742;2022-07-10T21:33:15;98897.25;;;14.87;65.39
55191;BME280;41070;50.360;18.742;2022-07-10T21:35:43;98899.01;;;14.81;65.74
55191;BME280;41070;50.360;18.742;2022-07-10T21:38:11;98900.80;;;14.77;66.17
55191;BME280;41070;50.360;18.742;2022-07-10T21:40:39;98899.20;;;14.73;66.41